Time;durP1;ratioP1;P1;durP2;ratioP2;P2;SDS_P1;SDS_P2;PMS_P1;PMS_P2;Temp;Humidity;BMP_temperature;BMP_pressure;BME280_temperature;BME280_humidity;BME280_pressure;Samples;Min_cycle;Max_cycle;Signal;HPM_P1;HPM_P2
2022/10/27 00:02:13;;;;;;;7.95;4.57;;;13.00;99.90;;;;;;5092450;28;20047;-67
2022/10/27 00:04:38;;;;;;;8.40;4.90;;;13.00;99.90;;;;;;5103353;28;20039;-66
2022/10/27 00:07:04;;;;;;;11.50;4.50;;;12.90;99.90;;;;;;5108756;28;20056;-66
2022/10/27 00:09:30;;;;;;;7.22;4.10;;;12.90;99.90;;;;;;5110281;28;20071;-66
2022/10/27 00:11:55;;;;;;;6.38;4.32;;;13.00;99.90;;;;;;5129253;27;20051;-67
2022/10/27 00:14:21;;;;;;;9.77;5.10;;;13.00;99.90;;;;;;5112648;27;20027;-66
2022/10/27 00:16:55;;;;;;;7.72;3.97;;;13.00;99.90;;;;;;5095440;28;20083;-67
2022/10/27 00:19:22;;;;;;;11.20;4.72;;;13.00;99.90;;;;;;5095805;27;20031;-66
2022/10/27 00:21:49;;;;;;;8.50;4.38;;;13.00;99.90;;;;;;5110072;27;20039;-67
2022/10/27 00:24:15;;;;;;;5.68;4.15;;;13.10;99.90;;;;;;5092760;28;20035;-67
2022/10/27 00:26:40;;;;;;;7.65;4.75;;;13.10;99.90;;;;;;5111774;27;20555;-67
2022/10/27 00:29:06;;;;;;;8.40;4.47;;;13.10;99.90;;;;;;5123284;27;20482;-68
2022/10/27 00:31:31;;;;;;;12.20;5.35;;;13.10;99.90;;;;;;5105685;28;20048;-67
2022/10/27 00:33:57;;;;;;;10.52;5.20;;;13.20;99.90;;;;;;5117962;27;20548;-67
2022/10/27 00:36:24;;;;;;;6.68;4.40;;;13.20;99.90;;;;;;5106394;27;20031;-68
2022/10/27 00:38:54;;;;;;;5.72;4.78;;;13.20;99.90;;;;;;5112086;27;20402;-67
2022/10/27 00:41:36;;;;;;;7.57;4.63;;;13.20;99.90;;;;;;5113408;27;20036;-68
2022/10/27 00:44:31;;;;;;;10.75;5.43;;;13.20;99.90;;;;;;5120871;27;20043;-67
2022/10/27 00:47:01;;;;;;;8.05;5.38;;;13.20;99.90;;;;;;5112306;27;20044;-67
2022/10/27 00:49:31;;;;;;;8.75;5.07;;;13.30;99.90;;;;;;5112732;27;20082;-67
2022/10/27 00:52:08;;;;;;;8.55;5.00;;;13.30;99.90;;;;;;5109015;28;20040;-67
2022/10/27 00:54:39;;;;;;;11.32;5.45;;;13.30;99.90;;;;;;5108611;28;20119;-66
2022/10/27 00:57:07;;;;;;;10.13;5.00;;;13.30;99.90;;;;;;5102472;28;20363;-67
2022/10/27 00:59:34;;;;;;;8.77;5.07;;;13.30;99.90;;;;;;5122459;27;20047;-67
2022/10/27 01:02:00;;;;;;;8.00;4.95;;;13.30;99.90;;;;;;5107808;28;20063;-66
2022/10/27 01:04:37;;;;;;;6.72;5.15;;;13.30;99.90;;;;;;5108571;28;20047;-67
2022/10/27 01:07:03;;;;;;;7.22;5.15;;;13.30;99.90;;;;;;5112097;27;20039;-67
2022/10/27 01:09:30;;;;;;;8.40;4.70;;;13.30;99.90;;;;;;5108521;27;20071;-67
2022/10/27 01:11:56;;;;;;;7.63;5.10;;;13.30;99.90;;;;;;5116503;27;20051;-67
2022/10/27 01:14:22;;;;;;;11.45;4.85;;;13.30;99.90;;;;;;5120132;27;20035;-66
2022/10/27 01:17:20;;;;;;;11.40;5.60;;;13.30;99.90;;;;;;5119057;27;20036;-66
2022/10/27 01:20:14;;;;;;;8.98;5.20;;;13.30;99.90;;;;;;5105901;28;20040;-66
2022/10/27 01:22:50;;;;;;;8.23;5.00;;;13.30;99.90;;;;;;5009600;28;20077;-66
2022/10/27 01:25:25;;;;;;;7.22;5.40;;;13.30;99.90;;;;;;5025324;28;20564;-68
2022/10/27 01:28:19;;;;;;;6.88;5.28;;;13.40;99.90;;;;;;5009152;28;20073;-67
2022/10/27 01:30:58;;;;;;;10.68;6.15;;;13.40;99.90;;;;;;5010504;28;20057;-68
2022/10/27 01:33:30;;;;;;;11.18;5.43;;;13.40;99.90;;;;;;5017536;28;20037;-66
2022/10/27 01:36:05;;;;;;;11.10;6.43;;;13.40;99.90;;;;;;5008799;28;20045;-67
2022/10/27 01:38:37;;;;;;;11.48;6.13;;;13.50;99.90;;;;;;4993876;28;20037;-65
2022/10/27 01:41:11;;;;;;;13.43;6.50;;;13.50;99.90;;;;;;4993265;28;20100;-66
2022/10/27 01:43:38;;;;;;;13.48;6.90;;;13.50;99.90;;;;;;5010984;28;20444;-66
2022/10/27 01:46:07;;;;;;;12.30;7.60;;;13.50;99.90;;;;;;5008358;28;20064;-66
2022/10/27 01:48:35;;;;;;;10.30;6.75;;;13.50;99.90;;;;;;5009554;28;20053;-66
2022/10/27 01:51:01;;;;;;;11.65;6.60;;;13.60;99.90;;;;;;5008481;28;20083;-66
2022/10/27 01:53:29;;;;;;;11.77;6.50;;;13.60;99.90;;;;;;5026937;28;20050;-68
2022/10/27 01:56:03;;;;;;;12.05;6.18;;;13.60;99.90;;;;;;4990814;28;20076;-66
2022/10/27 01:58:40;;;;;;;10.20;6.25;;;13.60;99.90;;;;;;5028925;28;20037;-66
2022/10/27 02:01:22;;;;;;;12.95;6.72;;;13.60;99.90;;;;;;5112604;28;20043;-67
2022/10/27 02:04:15;;;;;;;10.77;6.30;;;13.60;99.90;;;;;;5108091;28;20044;-67
2022/10/27 02:07:04;;;;;;;12.02;6.50;;;13.60;99.90;;;;;;5111658;28;20089;-66
2022/10/27 02:09:39;;;;;;;13.90;6.38;;;13.60;99.90;;;;;;5107146;28;20128;-67
2022/10/27 02:12:10;;;;;;;9.65;6.10;;;13.60;99.90;;;;;;5109651;28;20039;-67
2022/10/27 02:14:37;;;;;;;12.05;5.90;;;13.60;99.90;;;;;;5109552;27;20118;-67
2022/10/27 02:17:05;;;;;;;11.70;6.40;;;13.60;99.90;;;;;;5111368;27;20039;-67
2022/10/27 02:19:39;;;;;;;10.07;6.18;;;13.60;99.90;;;;;;5108732;28;20052;-68
2022/10/27 02:22:06;;;;;;;13.82;6.38;;;13.70;99.90;;;;;;5127173;27;20440;-67
2022/10/27 02:24:32;;;;;;;12.25;6.70;;;13.70;99.90;;;;;;5125111;27;20031;-66
2022/10/27 02:27:07;;;;;;;11.65;6.55;;;13.70;99.90;;;;;;5120700;27;20115;-68
2022/10/27 02:29:37;;;;;;;10.90;6.10;;;13.70;99.90;;;;;;5115673;27;20060;-66
2022/10/27 02:32:09;;;;;;;9.57;6.05;;;13.70;99.90;;;;;;5115033;27;20059;-67
2022/10/27 02:34:37;;;;;;;10.60;6.40;;;13.60;99.90;;;;;;5116433;27;20063;-67
2022/10/27 02:37:04;;;;;;;10.27;6.25;;;13.60;99.90;;;;;;5117306;27;20367;-67
2022/10/27 02:39:29;;;;;;;10.95;5.90;;;13.60;99.90;;;;;;5124375;27;20048;-66
2022/10/27 02:41:55;;;;;;;10.32;6.25;;;13.50;99.90;;;;;;5119588;27;20142;-67
2022/10/27 02:44:21;;;;;;;10.23;5.95;;;13.50;99.90;;;;;;5110788;27;20036;-67
2022/10/27 02:46:46;;;;;;;14.48;6.38;;;13.50;99.90;;;;;;5111184;28;20054;-67
2022/10/27 02:49:12;;;;;;;8.80;5.55;;;13.50;99.90;;;;;;5120630;27;20038;-66
2022/10/27 02:51:38;;;;;;;12.23;6.10;;;13.50;99.90;;;;;;5110609;28;20039;-67
2022/10/27 02:54:03;;;;;;;14.30;6.68;;;13.50;99.90;;;;;;5131978;27;20031;-66
2022/10/27 02:56:29;;;;;;;9.85;6.88;;;13.50;99.90;;;;;;5113495;27;20051;-67
2022/10/27 02:58:54;;;;;;;15.23;7.30;;;13.50;99.90;;;;;;5111044;27;20051;-66
2022/10/27 03:01:20;;;;;;;11.82;7.18;;;13.50;99.90;;;;;;5108886;28;20494;-67
2022/10/27 03:03:45;;;;;;;12.18;7.10;;;13.50;99.90;;;;;;5113970;27;20180;-67
2022/10/27 03:06:11;;;;;;;13.57;6.53;;;13.50;99.90;;;;;;5107797;28;20035;-67
2022/10/27 03:08:37;;;;;;;11.93;6.80;;;13.50;99.90;;;;;;5094837;28;20525;-67
2022/10/27 03:11:02;;;;;;;9.45;6.97;;;13.50;99.90;;;;;;5114753;27;20044;-65
2022/10/27 03:13:28;;;;;;;14.35;8.18;;;13.50;99.90;;;;;;5111480;28;20058;-67
2022/10/27 03:15:53;;;;;;;11.40;7.05;;;13.50;99.90;;;;;;5120497;27;20478;-68
2022/10/27 03:18:19;;;;;;;11.30;6.72;;;13.50;99.90;;;;;;5130666;27;20042;-67
2022/10/27 03:20:45;;;;;;;10.15;6.57;;;13.50;99.90;;;;;;5097467;28;20132;-67
2022/10/27 03:23:11;;;;;;;17.15;7.75;;;13.50;99.90;;;;;;5109117;28;20481;-66
2022/10/27 03:25:42;;;;;;;9.73;6.70;;;13.50;99.90;;;;;;5110487;28;20035;-66
2022/10/27 03:28:08;;;;;;;10.63;6.90;;;13.50;99.90;;;;;;5113109;27;20110;-67
2022/10/27 03:30:34;;;;;;;11.02;6.57;;;13.40;99.90;;;;;;5123043;27;20048;-67
2022/10/27 03:33:00;;;;;;;12.30;6.78;;;13.40;99.90;;;;;;5121214;27;20500;-66
2022/10/27 03:35:26;;;;;;;12.63;6.60;;;13.40;99.90;;;;;;5117058;27;20035;-67
2022/10/27 03:37:59;;;;;;;12.40;6.75;;;13.40;99.90;;;;;;5095161;28;20535;-66
2022/10/27 03:40:27;;;;;;;12.52;6.38;;;13.40;99.90;;;;;;5124208;27;20058;-67
2022/10/27 03:42:57;;;;;;;12.00;7.07;;;13.40;99.90;;;;;;5111078;27;20103;-67
2022/10/27 03:45:26;;;;;;;10.35;6.93;;;13.40;99.90;;;;;;5110317;28;20049;-67
2022/10/27 03:48:05;;;;;;;10.18;5.75;;;13.40;99.90;;;;;;5108305;28;20039;-66
2022/10/27 03:50:31;;;;;;;9.00;5.85;;;13.30;99.90;;;;;;5115250;27;20048;-67
2022/10/27 03:52:57;;;;;;;8.93;5.90;;;13.30;99.90;;;;;;5109319;27;20027;-66
2022/10/27 03:55:24;;;;;;;10.18;5.88;;;13.30;99.90;;;;;;5109260;28;20071;-67
2022/10/27 03:57:49;;;;;;;10.65;6.18;;;13.20;99.90;;;;;;5126333;27;20038;-66
2022/10/27 04:00:16;;;;;;;10.23;6.03;;;13.20;99.90;;;;;;5090939;28;20035;-66
2022/10/27 04:02:42;;;;;;;12.45;6.38;;;13.20;99.90;;;;;;5106200;28;20511;-67
2022/10/27 04:05:08;;;;;;;12.93;7.18;;;13.20;99.90;;;;;;5106552;28;20121;-66
2022/10/27 04:07:33;;;;;;;14.40;6.95;;;13.20;99.90;;;;;;5107718;28;20031;-65
2022/10/27 04:09:59;;;;;;;11.20;6.60;;;13.20;99.90;;;;;;5093480;28;20051;-66
2022/10/27 04:12:24;;;;;;;13.15;6.00;;;13.20;99.90;;;;;;5126787;27;20083;-66
2022/10/27 04:14:50;;;;;;;10.73;6.25;;;13.20;99.90;;;;;;5112308;27;20044;-66
2022/10/27 04:17:16;;;;;;;9.18;5.93;;;13.20;99.90;;;;;;5126741;27;20394;-66
2022/10/27 04:19:42;;;;;;;11.68;6.53;;;13.20;99.90;;;;;;5123748;27;20054;-65
2022/10/27 04:22:08;;;;;;;12.32;6.95;;;13.20;99.90;;;;;;5120084;27;20035;-66
2022/10/27 04:24:34;;;;;;;8.82;5.40;;;13.20;99.90;;;;;;5119652;27;20042;-65
2022/10/27 04:26:59;;;;;;;9.80;6.30;;;13.20;99.90;;;;;;5109728;27;20047;-66
2022/10/27 04:29:25;;;;;;;9.30;5.50;;;13.20;99.90;;;;;;5110574;28;20046;-67
2022/10/27 04:31:50;;;;;;;9.70;6.40;;;13.30;99.90;;;;;;5091299;28;20122;-67
2022/10/27 04:34:16;;;;;;;11.40;5.72;;;13.30;99.90;;;;;;5099335;28;20549;-66
2022/10/27 04:36:42;;;;;;;12.30;5.82;;;13.30;99.90;;;;;;5110669;27;20118;-67
2022/10/27 04:39:12;;;;;;;9.02;6.15;;;13.30;99.90;;;;;;5110427;27;20082;-66
2022/10/27 04:41:38;;;;;;;13.32;6.22;;;13.30;99.90;;;;;;5090737;28;20048;-67
2022/10/27 04:44:04;;;;;;;9.57;5.68;;;13.30;99.90;;;;;;5111118;28;20538;-66
2022/10/27 04:46:30;;;;;;;10.50;5.82;;;13.30;99.90;;;;;;5108735;28;20027;-67
2022/10/27 04:48:55;;;;;;;12.93;5.40;;;13.30;99.90;;;;;;5091812;28;20101;-66
2022/10/27 04:51:21;;;;;;;11.27;5.53;;;13.30;99.90;;;;;;5107648;28;20039;-66
2022/10/27 04:53:47;;;;;;;11.77;6.05;;;13.30;99.90;;;;;;5111272;28;20180;-66
2022/10/27 04:56:12;;;;;;;9.77;5.80;;;13.20;99.90;;;;;;5111160;27;20478;-66
2022/10/27 04:58:38;;;;;;;9.88;5.82;;;13.30;99.90;;;;;;5091541;28;20103;-67
2022/10/27 05:01:08;;;;;;;10.82;5.93;;;13.20;99.90;;;;;;5105834;28;20448;-66
2022/10/27 05:03:34;;;;;;;11.18;6.57;;;13.30;99.90;;;;;;5118582;27;20051;-66
2022/10/27 05:05:59;;;;;;;9.57;6.63;;;13.30;99.90;;;;;;5113433;27;20039;-66
2022/10/27 05:08:25;;;;;;;12.23;6.95;;;13.20;99.90;;;;;;5118815;27;20061;-66
2022/10/27 05:10:51;;;;;;;11.40;7.20;;;13.30;99.90;;;;;;5110628;28;20402;-68
2022/10/27 05:13:16;;;;;;;13.18;6.72;;;13.20;99.90;;;;;;5107502;27;20076;-66
2022/10/27 05:15:42;;;;;;;12.82;7.68;;;13.20;99.90;;;;;;5109463;27;20044;-66
2022/10/27 05:18:07;;;;;;;10.23;7.55;;;13.30;99.90;;;;;;5108467;28;20039;-67
2022/10/27 05:20:33;;;;;;;12.77;8.27;;;13.20;99.90;;;;;;5108134;28;20158;-68
2022/10/27 05:22:59;;;;;;;18.70;8.18;;;13.30;99.90;;;;;;5115938;27;20031;-66
2022/10/27 05:25:24;;;;;;;12.05;7.22;;;13.20;99.90;;;;;;5110534;28;20039;-67
2022/10/27 05:27:50;;;;;;;13.07;7.28;;;13.20;99.90;;;;;;5117964;27;20070;-66
2022/10/27 05:30:16;;;;;;;11.00;7.80;;;13.20;99.90;;;;;;5108844;28;20081;-66
2022/10/27 05:32:42;;;;;;;11.73;7.88;;;13.20;99.90;;;;;;5087336;28;20131;-67
2022/10/27 05:35:08;;;;;;;13.90;8.30;;;13.20;99.90;;;;;;5115538;28;20043;-66
2022/10/27 05:37:33;;;;;;;14.15;8.50;;;13.20;99.90;;;;;;5123611;28;21615;-68
2022/10/27 05:39:59;;;;;;;14.07;8.55;;;13.20;99.90;;;;;;5108214;28;20047;-67
2022/10/27 05:42:26;;;;;;;11.80;8.02;;;13.20;99.90;;;;;;5099581;28;20116;-67
2022/10/27 05:44:52;;;;;;;12.73;7.43;;;13.20;99.90;;;;;;5097650;28;20441;-66
2022/10/27 05:47:17;;;;;;;12.07;7.68;;;13.20;99.90;;;;;;5100264;27;20047;-67
2022/10/27 05:49:46;;;;;;;10.05;7.28;;;13.20;99.90;;;;;;5112132;27;20079;-67
2022/10/27 05:52:11;;;;;;;17.75;8.00;;;13.20;99.90;;;;;;5104663;28;20502;-67
2022/10/27 05:54:37;;;;;;;11.23;7.43;;;13.20;99.90;;;;;;5131485;27;20035;-66
2022/10/27 05:57:03;;;;;;;11.85;7.32;;;13.20;99.90;;;;;;5110528;27;20035;-67
2022/10/27 05:59:29;;;;;;;11.68;7.72;;;13.20;99.90;;;;;;5111046;27;20482;-65
2022/10/27 06:01:54;;;;;;;13.45;7.53;;;13.10;99.90;;;;;;5115670;27;20054;-67
2022/10/27 06:04:20;;;;;;;9.52;7.10;;;13.20;99.90;;;;;;5108471;28;20459;-66
2022/10/27 06:06:45;;;;;;;13.65;7.57;;;13.20;99.90;;;;;;5114049;28;20052;-68
2022/10/27 06:09:11;;;;;;;11.40;7.03;;;13.20;99.90;;;;;;5130495;27;20046;-66
2022/10/27 06:11:37;;;;;;;10.43;6.95;;;13.20;99.90;;;;;;5110987;28;20457;-67
2022/10/27 06:14:02;;;;;;;14.75;7.03;;;13.20;99.90;;;;;;5124916;27;20040;-66
2022/10/27 06:16:28;;;;;;;13.00;6.82;;;13.20;99.90;;;;;;5113280;28;20367;-66
2022/10/27 06:18:53;;;;;;;10.20;7.60;;;13.20;99.90;;;;;;5113376;28;20039;-67
2022/10/27 06:21:20;;;;;;;10.68;7.88;;;13.10;99.90;;;;;;5126126;27;20470;-67
2022/10/27 06:23:49;;;;;;;10.60;6.80;;;13.20;99.90;;;;;;5116351;27;20502;-66
2022/10/27 06:26:15;;;;;;;12.90;6.43;;;13.20;99.90;;;;;;5109985;27;20032;-68
2022/10/27 06:28:40;;;;;;;13.52;6.80;;;13.20;99.90;;;;;;5112391;28;20379;-67
2022/10/27 06:31:06;;;;;;;9.30;7.25;;;13.20;99.90;;;;;;5129149;27;20050;-67
2022/10/27 06:33:32;;;;;;;11.10;6.72;;;13.20;99.90;;;;;;5105960;28;20041;-66
2022/10/27 06:35:57;;;;;;;10.15;6.10;;;13.20;99.90;;;;;;5121347;27;20058;-66
2022/10/27 06:38:23;;;;;;;11.98;6.63;;;13.20;99.90;;;;;;5131551;27;20038;-67
2022/10/27 06:40:48;;;;;;;10.13;6.20;;;13.30;99.90;;;;;;5119800;27;20138;-67
2022/10/27 06:43:14;;;;;;;10.57;6.47;;;13.20;99.90;;;;;;5113842;28;20157;-67
2022/10/27 06:45:44;;;;;;;13.30;6.10;;;13.30;99.90;;;;;;5121057;27;20031;-66
2022/10/27 06:48:10;;;;;;;9.77;6.60;;;13.30;99.90;;;;;;5104191;28;20505;-66
2022/10/27 06:50:35;;;;;;;9.52;6.15;;;13.30;99.90;;;;;;5089552;28;20043;-67
2022/10/27 06:53:02;;;;;;;10.98;6.50;;;13.30;99.90;;;;;;5131853;27;20039;-66
2022/10/27 06:55:28;;;;;;;11.52;6.28;;;13.40;99.90;;;;;;5098891;28;20486;-67
2022/10/27 06:57:54;;;;;;;10.63;7.07;;;13.40;99.90;;;;;;5130414;27;20035;-66
2022/10/27 07:00:20;;;;;;;11.40;6.57;;;13.40;99.90;;;;;;5115648;27;20035;-67
2022/10/27 07:02:46;;;;;;;9.85;6.30;;;13.40;99.90;;;;;;5095526;28;20050;-67
2022/10/27 07:05:12;;;;;;;8.20;6.20;;;13.40;99.90;;;;;;5113653;28;20829;-66
2022/10/27 07:07:37;;;;;;;10.27;6.40;;;13.40;99.90;;;;;;5120924;27;20043;-66
2022/10/27 07:10:05;;;;;;;11.57;6.50;;;13.50;99.90;;;;;;5131281;27;20031;-66
2022/10/27 07:12:31;;;;;;;10.13;6.50;;;13.50;99.90;;;;;;5113651;27;20087;-67
2022/10/27 07:14:56;;;;;;;11.38;6.75;;;13.50;99.90;;;;;;5130163;27;20122;-67
2022/10/27 07:17:22;;;;;;;13.02;6.80;;;13.50;99.90;;;;;;5119961;27;20555;-66
2022/10/27 07:19:47;;;;;;;11.07;6.82;;;13.60;99.90;;;;;;5107527;28;20477;-66
2022/10/27 07:22:13;;;;;;;11.40;7.05;;;13.60;99.90;;;;;;5111007;28;20051;-67
2022/10/27 07:24:39;;;;;;;13.20;7.35;;;13.70;99.90;;;;;;5131691;27;20027;-66
2022/10/27 07:27:04;;;;;;;11.23;6.93;;;13.70;99.90;;;;;;5121134;27;20051;-67
2022/10/27 07:29:30;;;;;;;14.85;7.30;;;13.70;99.90;;;;;;5130183;27;20042;-67
2022/10/27 07:31:57;;;;;;;13.40;6.68;;;13.70;99.90;;;;;;5121737;27;20071;-67
2022/10/27 07:34:23;;;;;;;11.55;7.13;;;13.70;99.90;;;;;;5112355;28;20051;-66
2022/10/27 07:36:48;;;;;;;12.32;6.85;;;13.80;99.90;;;;;;5111373;27;20538;-67
2022/10/27 07:39:14;;;;;;;14.30;6.57;;;13.80;99.90;;;;;;5114370;27;20374;-67
2022/10/27 07:41:39;;;;;;;15.70;6.90;;;13.90;99.90;;;;;;5131089;27;20405;-67
2022/10/27 07:44:05;;;;;;;10.90;6.30;;;13.90;99.90;;;;;;5116364;27;20047;-67
2022/10/27 07:46:31;;;;;;;9.55;6.35;;;14.00;99.90;;;;;;5129747;27;20039;-67
2022/10/27 07:48:56;;;;;;;12.90;6.60;;;14.00;99.90;;;;;;5119062;27;20066;-67
2022/10/27 07:51:22;;;;;;;10.68;5.97;;;14.10;99.90;;;;;;5127730;27;20043;-68
2022/10/27 07:53:49;;;;;;;13.77;5.95;;;14.20;99.90;;;;;;5109968;28;20390;-66
2022/10/27 07:56:16;;;;;;;9.50;5.55;;;14.20;99.90;;;;;;5110794;28;20437;-67
2022/10/27 07:58:42;;;;;;;12.63;6.38;;;14.30;99.90;;;;;;5128862;27;20095;-66
2022/10/27 08:01:07;;;;;;;11.38;5.38;;;14.40;99.90;;;;;;5107810;28;20439;-67
2022/10/27 08:03:33;;;;;;;10.00;5.72;;;14.40;99.90;;;;;;5121100;27;20110;-66
2022/10/27 08:06:02;;;;;;;10.48;5.65;;;14.50;99.90;;;;;;5124766;27;20047;-66
2022/10/27 08:08:28;;;;;;;15.13;6.07;;;14.60;99.90;;;;;;5126424;27;20031;-67
2022/10/27 08:10:55;;;;;;;8.00;5.32;;;14.70;99.90;;;;;;5105721;28;20393;-67
2022/10/27 08:13:20;;;;;;;9.68;5.63;;;14.70;99.90;;;;;;5109802;28;20039;-67
2022/10/27 08:15:46;;;;;;;9.30;5.50;;;14.70;99.90;;;;;;5108370;28;20398;-68
2022/10/27 08:18:12;;;;;;;10.35;5.65;;;14.80;99.90;;;;;;5127186;27;20038;-67
2022/10/27 08:20:43;;;;;;;12.20;5.47;;;14.80;99.90;;;;;;5109227;28;20046;-67
2022/10/27 08:23:14;;;;;;;8.82;5.80;;;14.80;99.90;;;;;;5129145;27;20385;-68
2022/10/27 08:25:41;;;;;;;9.52;5.28;;;14.80;99.90;;;;;;5092871;28;20039;-67
2022/10/27 08:28:08;;;;;;;11.27;5.70;;;14.90;99.90;;;;;;5127974;27;20042;-67
2022/10/27 08:30:34;;;;;;;9.48;4.85;;;14.90;99.90;;;;;;5117277;27;20100;-68
2022/10/27 08:33:01;;;;;;;11.15;6.22;;;15.00;99.90;;;;;;5109503;28;20040;-67
2022/10/27 08:35:28;;;;;;;8.98;5.72;;;15.00;99.90;;;;;;5109169;28;20035;-68
2022/10/27 08:38:02;;;;;;;10.52;5.07;;;15.00;99.90;;;;;;5097822;27;20058;-67
2022/10/27 08:40:55;;;;;;;9.77;5.60;;;15.00;99.90;;;;;;5073450;28;20566;-68
2022/10/27 08:43:51;;;;;;;8.50;5.20;;;15.10;99.90;;;;;;5084444;28;20514;-67
2022/10/27 08:46:37;;;;;;;11.98;5.70;;;15.20;99.90;;;;;;5112666;27;20497;-66
2022/10/27 08:49:19;;;;;;;10.68;6.13;;;15.30;99.90;;;;;;5104855;28;20485;-68
2022/10/27 08:51:47;;;;;;;9.50;5.35;;;15.40;99.90;;;;;;5107323;28;20035;-68
2022/10/27 08:54:12;;;;;;;9.90;6.18;;;15.60;99.90;;;;;;5127640;27;20103;-66
2022/10/27 08:56:40;;;;;;;9.32;5.18;;;15.70;99.90;;;;;;5105130;28;20031;-67
2022/10/27 08:59:15;;;;;;;8.20;4.47;;;15.90;99.90;;;;;;5110478;28;20427;-67
2022/10/27 09:01:52;;;;;;;9.73;4.70;;;16.00;99.90;;;;;;5121880;27;20044;-67
2022/10/27 09:04:32;;;;;;;10.02;4.47;;;16.20;99.90;;;;;;5108524;28;20040;-67
2022/10/27 09:07:16;;;;;;;9.40;4.45;;;16.30;99.90;;;;;;5126136;27;20047;-67
2022/10/27 09:09:56;;;;;;;10.15;4.80;;;16.50;99.90;;;;;;5089233;28;20051;-66
2022/10/27 09:12:40;;;;;;;12.95;4.72;;;16.60;99.90;;;;;;5091719;28;20122;-68
2022/10/27 09:15:22;;;;;;;7.97;4.30;;;16.80;99.90;;;;;;5109164;28;20059;-68
2022/10/27 09:17:53;;;;;;;;;;;16.90;99.90;;;;;;5122686;27;20035;-67
2022/10/27 09:20:26;;;;;;;6.55;3.40;;;17.00;99.90;;;;;;5108637;28;19965;-67
2022/10/27 09:22:53;;;;;;;6.80;3.38;;;17.00;99.90;;;;;;5127027;27;20101;-67
2022/10/27 09:25:20;;;;;;;6.25;3.58;;;16.90;99.90;;;;;;5109156;27;20455;-66
2022/10/27 09:27:54;;;;;;;8.05;3.70;;;16.90;99.90;;;;;;5109776;28;20039;-66
2022/10/27 09:30:20;;;;;;;7.05;3.00;;;16.90;99.90;;;;;;5091007;28;20035;-66
2022/10/27 09:32:55;;;;;;;6.60;2.80;;;16.90;99.90;;;;;;5105560;28;20285;-68
2022/10/27 09:35:24;;;;;;;7.43;2.85;;;17.00;99.90;;;;;;5107732;28;20039;-68
2022/10/27 09:37:51;;;;;;;3.85;2.80;;;17.10;99.90;;;;;;5109765;28;20040;-66
2022/10/27 09:40:21;;;;;;;5.32;3.05;;;17.20;99.90;;;;;;5108474;28;20042;-66
2022/10/27 09:42:52;;;;;;;6.55;3.00;;;17.20;99.90;;;;;;5110613;28;20043;-66
2022/10/27 09:45:23;;;;;;;6.22;2.90;;;17.30;99.90;;;;;;5124149;28;20119;-68
2022/10/27 09:48:03;;;;;;;7.15;2.90;;;17.30;99.90;;;;;;5119967;28;20080;-67
2022/10/27 09:50:43;;;;;;;6.82;2.65;;;17.40;99.90;;;;;;5107072;28;20042;-67
2022/10/27 09:53:41;;;;;;;11.82;3.42;;;17.50;99.90;;;;;;5128165;27;20067;-68
2022/10/27 09:56:11;;;;;;;6.32;2.83;;;17.50;99.90;;;;;;5111472;28;20076;-68
2022/10/27 09:58:56;;;;;;;7.47;2.92;;;17.60;99.90;;;;;;5110626;28;20050;-68
2022/10/27 10:01:24;;;;;;;4.38;2.35;;;17.80;99.90;;;;;;5112848;28;20187;-67
2022/10/27 10:04:03;;;;;;;5.88;2.97;;;18.00;99.90;;;;;;5129128;28;20035;-66
2022/10/27 10:06:36;;;;;;;6.10;2.60;;;18.10;99.90;;;;;;5113882;28;20039;-67
2022/10/27 10:09:32;;;;;;;7.15;2.58;;;18.30;99.90;;;;;;5109297;28;20042;-67
2022/10/27 10:12:24;;;;;;;5.97;2.70;;;18.50;99.90;;;;;;5107203;28;20064;-68
2022/10/27 10:15:08;;;;;;;3.65;2.30;;;18.90;99.90;;;;;;5110352;28;20051;-67
2022/10/27 10:17:34;;;;;;;4.75;2.20;;;19.20;99.90;;;;;;5106712;28;20071;-69
2022/10/27 10:20:01;;;;;;;4.55;2.20;;;19.50;99.90;;;;;;5108612;28;20032;-67
2022/10/27 10:22:29;;;;;;;6.32;2.22;;;19.40;99.90;;;;;;5104896;28;20039;-66
2022/10/27 10:24:58;;;;;;;4.32;2.38;;;19.30;99.90;;;;;;5091999;28;20048;-67
2022/10/27 10:27:31;;;;;;;4.10;1.88;;;19.20;99.90;;;;;;5128926;28;20035;-67
2022/10/27 10:29:59;;;;;;;5.05;2.10;;;19.10;99.90;;;;;;5112462;28;20048;-66
2022/10/27 10:32:28;;;;;;;7.70;2.03;;;18.90;99.90;;;;;;5116924;28;20052;-68
2022/10/27 10:34:55;;;;;;;5.20;1.63;;;18.80;99.90;;;;;;5111636;28;20119;-67
2022/10/27 10:37:45;;;;;;;3.42;1.70;;;18.70;99.90;;;;;;5129919;27;20106;-67
2022/10/27 10:40:13;;;;;;;5.70;1.50;;;18.70;99.90;;;;;;5110533;28;20027;-67
2022/10/27 10:43:00;;;;;;;4.95;1.60;;;18.80;99.90;;;;;;5118154;27;20070;-68
2022/10/27 10:45:29;;;;;;;4.85;1.83;;;18.90;99.90;;;;;;5112133;28;20413;-68
2022/10/27 10:48:02;;;;;;;4.15;1.60;;;19.00;99.90;;;;;;5108652;28;20067;-67
2022/10/27 10:50:28;;;;;;;4.40;1.60;;;19.20;99.90;;;;;;5116588;27;20444;-67
2022/10/27 10:52:56;;;;;;;5.72;2.10;;;19.30;99.90;;;;;;5129489;27;20035;-68
2022/10/27 10:55:31;;;;;;;7.85;2.20;;;19.40;99.90;;;;;;5126119;27;20038;-66
2022/10/27 10:57:57;;;;;;;4.50;1.38;;;19.30;99.90;;;;;;5131853;27;20050;-67
2022/10/27 11:00:23;;;;;;;5.68;1.67;;;19.20;99.90;;;;;;5123936;27;20390;-67
2022/10/27 11:02:54;;;;;;;4.35;1.45;;;19.20;99.90;;;;;;5130082;27;20124;-68
2022/10/27 11:05:36;;;;;;;3.72;1.67;;;19.10;99.90;;;;;;5123818;27;20040;-67
2022/10/27 11:08:04;;;;;;;5.13;1.38;;;19.20;99.90;;;;;;5131665;27;20039;-67
2022/10/27 11:10:39;;;;;;;3.58;1.45;;;19.10;99.90;;;;;;5111869;27;20039;-67
2022/10/27 11:13:10;;;;;;;5.22;1.50;;;19.10;99.90;;;;;;5132088;27;20035;-67
2022/10/27 11:15:42;;;;;;;5.68;1.30;;;19.00;99.90;;;;;;5127345;27;20046;-68
2022/10/27 11:18:13;;;;;;;5.07;1.40;;;18.90;99.90;;;;;;5132123;27;20031;-67
2022/10/27 11:20:42;;;;;;;4.63;1.70;;;18.90;99.90;;;;;;5109735;28;20035;-68
2022/10/27 11:23:22;;;;;;;2.83;1.20;;;18.80;99.90;;;;;;5131892;27;20522;-68
2022/10/27 11:25:48;;;;;;;7.28;1.30;;;18.70;99.90;;;;;;5120999;27;20363;-68
2022/10/27 11:28:23;;;;;;;2.83;1.20;;;18.70;99.90;;;;;;5111916;28;20028;-68
2022/10/27 11:31:04;;;;;;;2.58;1.10;;;18.70;99.90;;;;;;5106102;28;20086;-67
2022/10/27 11:33:54;;;;;;;3.47;1.10;;;18.70;99.90;;;;;;5127208;27;20408;-69
2022/10/27 11:36:23;;;;;;;4.05;1.50;;;18.70;99.90;;;;;;5124551;27;20036;-67
2022/10/27 11:39:06;;;;;;;4.07;1.25;;;18.60;99.90;;;;;;5107997;28;20075;-67
2022/10/27 11:42:05;;;;;;;6.65;1.42;;;18.60;99.90;;;;;;5092481;28;20060;-67
2022/10/27 11:44:37;;;;;;;4.72;0.98;;;18.60;99.90;;;;;;5129678;27;20039;-67
2022/10/27 11:47:10;;;;;;;8.15;1.45;;;18.60;99.90;;;;;;5120056;27;20642;-66
2022/10/27 11:49:52;;;;;;;1.83;1.00;;;18.60;99.90;;;;;;5126003;27;20044;-67
2022/10/27 11:52:20;;;;;;;4.50;1.23;;;18.70;99.90;;;;;;5105462;28;20199;-67
2022/10/27 11:54:47;;;;;;;3.45;1.35;;;18.70;99.90;;;;;;5121766;27;20409;-67
2022/10/27 11:57:39;;;;;;;5.28;1.98;;;18.70;99.90;;;;;;5130444;27;20031;-68
2022/10/27 12:00:11;;;;;;;5.28;1.30;;;18.80;99.90;;;;;;5103070;28;20048;-68
2022/10/27 12:02:45;;;;;;;3.53;1.30;;;18.80;99.90;;;;;;5118003;27;20047;-68
2022/10/27 12:05:22;;;;;;;7.45;1.17;;;18.80;99.90;;;;;;5116339;27;20046;-68
2022/10/27 12:08:09;;;;;;;3.10;1.45;;;18.80;99.90;;;;;;5109092;28;20043;-66
2022/10/27 12:10:57;;;;;;;3.88;1.30;;;18.80;99.90;;;;;;5116760;27;20044;-67
2022/10/27 12:13:43;;;;;;;1.90;1.20;;;18.80;99.90;;;;;;5130975;27;20035;-66
2022/10/27 12:16:27;;;;;;;2.72;1.35;;;18.80;99.90;;;;;;5113928;27;20035;-68
2022/10/27 12:19:32;;;;;;;2.05;0.90;;;18.80;99.90;;;;;;5131152;27;20039;-68
2022/10/27 12:22:13;;;;;;;3.60;1.00;;;18.80;99.90;;;;;;5100085;28;20065;-67
2022/10/27 12:24:52;;;;;;;2.90;1.05;;;18.80;99.90;;;;;;5117901;27;20047;-67
2022/10/27 12:27:28;;;;;;;3.80;1.20;;;18.80;99.90;;;;;;5102597;28;20054;-67
2022/10/27 12:29:58;;;;;;;4.72;1.50;;;18.70;99.90;;;;;;5130480;27;20039;-68
2022/10/27 12:32:29;;;;;;;4.25;1.40;;;18.80;99.90;;;;;;5099291;27;20078;-68
2022/10/27 12:35:09;;;;;;;5.65;1.60;;;18.80;99.90;;;;;;5107082;28;20048;-69
2022/10/27 12:37:56;;;;;;;3.28;1.50;;;18.80;99.90;;;;;;5109198;28;20390;-68
2022/10/27 12:40:50;;;;;;;3.38;1.33;;;18.90;99.90;;;;;;5110380;28;20042;-68
2022/10/27 12:43:27;;;;;;;6.60;2.03;;;18.90;99.90;;;;;;5112963;27;20038;-67
2022/10/27 12:45:56;;;;;;;2.63;1.10;;;18.90;99.90;;;;;;5129365;27;20043;-67
2022/10/27 12:48:31;;;;;;;3.30;1.40;;;19.00;99.90;;;;;;5109155;28;20035;-66
2022/10/27 12:51:23;;;;;;;2.58;1.10;;;19.10;99.90;;;;;;5110675;27;20068;-68
2022/10/27 12:53:53;;;;;;;2.60;1.50;;;19.40;99.90;;;;;;5103588;28;20051;-68
2022/10/27 12:56:25;;;;;;;3.75;1.00;;;19.60;99.90;;;;;;5119571;27;20042;-67
2022/10/27 12:59:00;;;;;;;3.67;1.40;;;19.70;99.90;;;;;;5106098;28;20039;-68
2022/10/27 13:01:34;;;;;;;4.30;1.23;;;19.80;99.90;;;;;;5113417;27;20047;-67